x

South Hatteras - 225 South Of Cape Hatteras (41002) Wave Buoy

2:50 - Sun 23rd Apr 2017 All times are EDT. -4 hours from GMT.

  • Sig Wave height 3.9ft
  • Swell Direction
  • Peak Period 12s
  • Average Period 6s
  • Wind
    11mph, 16mph gusts
  • Sea Temp 75°f
  • Air Temp 73°f
  • Sea Pressure 1014.2mb
  • South Hatteras - 225 South Of Cape Hatteras
  • South Hatteras - 225 South Of Cape Hatteras

More Historic Weather Station data

Upgrade to MSW Pro to gain access to the past 30 days of data for over 8000 Wavebouys and Weather Stations around the globe.

Join Pro

Comparision Forecast

View Surf forecast
   
dim. 04/23 2:50 4ft 12s 6s 11 16 mph 1014.2mb 75f 73f
1:50 4ft 11s 6s 11 13 mph 1014.8mb 75f 73f
12:50 4.5ft 11s 6s 11 13 mph 1015.3mb 75f 73f
11:50 4.5ft 11s 6s 11
mph
1015.4mb 75f 73f
10:50 4.5ft 11s 6s 9 11 mph 1015.4mb 75f 73f
9:50 4ft 12s 6s 11 13 mph 1015.4mb 75f 73f
8:50 4.5ft 12s 6s 9 13 mph 1015.6mb 75f 72f
7:50 4.5ft 12s 6s 11 13 mph 1015.4mb 74f 72f
6:50 4ft 11s 6s 13 18 mph 1014.8mb 74f 72f
5:50 4.5ft 11s 6s 16 18 mph 1014.2mb 74f 72f
4:50 5ft 12s 6s 16 20 mph 1014.2mb 75f 72f
3:50 4.5ft 13s 6s 16 18 mph 1014.3mb 76f 72f
2:50 4.5ft 11s 6s 18 20 mph 1014.7mb 76f 72f
1:50 4.5ft 12s 6s 16 20 mph 1015mb 76f 72f
12:50 4.5ft 12s 6s 18 22 mph 1015.2mb 76f 72f
sam. 04/22 11:50 4.5ft 13s 6s 16 18 mph 1015.4mb 75f 72f
10:50 4.5ft 14s 6s 18 20 mph 1015.4mb 75f 72f
9:50 4.5ft 12s 6s 16 20 mph 1015.8mb 75f 72f
7:50 4.5ft 12s 6s 13 18 mph 1015.4mb 75f 72f
6:50 4.5ft 13s 6s 13 18 mph 1015.5mb 75f 72f
5:50 4ft 12s 6s 13 16 mph 1015.6mb 74f 73f
4:50 4ft 13s 6s 11 16 mph 1015.8mb 74f 73f
3:50 4ft 12s 6s 11 16 mph 1016.2mb 74f 73f
2:50 4ft 11s 6s 13 16 mph 1016.5mb 74f 73f
1:50 4ft 13s 6s 13 16 mph 1017mb 74f 73f
12:50 3.5ft 12s 6s 13 16 mph 1017.2mb 74f 73f
11:50 3.5ft 10s 6s 13 18 mph 1017.5mb 74f 73f
10:50 4ft 12s 6s 13 16 mph 1017.6mb 74f 73f
9:50 3.5ft 13s 5s 13 16 mph 1017.5mb 74f 73f
7:50 3.5ft 11s 5s 13 16 mph 1017.4mb 74f 73f
6:50 4ft 11s 6s 16 18 mph 1016.8mb 74f 72f
5:50 3.5ft 11s 6s 13 18 mph 1016.3mb 74f 72f
4:50 3.5ft 10s 5s 13 16 mph 1015.9mb 74f 72f
3:50 3.5ft 12s 5s 16 18 mph 1015.9mb 74f 72f
2:50 4ft 10s 5s 16 18 mph 1016.4mb 74f 73f
1:50 3.5ft 11s 5s 16 18 mph 1016.9mb 74f 73f
12:50 3.5ft 11s 6s 16 18 mph 1017.5mb 74f 73f
ven. 04/21 11:50 3.5ft 11s 6s 16 18 mph 1017.6mb 74f 73f
10:50 3.5ft 10s 6s 13 16 mph 1017.6mb 74f 73f
9:50 3.5ft 11s 6s 9 11 mph 1017.5mb 75f 73f
7:50 3.5ft 10s 6s 11 13 mph 1017.2mb 75f 73f
6:50 3.5ft 9s 6s 11 13 mph 1016.8mb 76f 74f
5:50 3.5ft 10s 6s 11 13 mph 1017.1mb 76f 74f
4:50 3.5ft 9s 6s 11 13 mph 1017.1mb 76f 74f
3:50 3.5ft 10s 5s 11 13 mph 1017.1mb 76f 74f
2:50 3.5ft 10s 6s 11 13 mph 1017.9mb 76f 73f
1:50 4ft 9s 6s 13 16 mph 1018.3mb 76f 73f
12:50 3.5ft 9s 6s 13 16 mph 1018.6mb 75f 73f
11:50 3.5ft 9s 6s 13 16 mph 1019.1mb 75f 73f
10:50 3.5ft 9s 6s 13 16 mph 1019.1mb 75f 73f
8:50 3.5ft 9s 6s 11 13 mph 1019.3mb 75f 73f
7:50 4ft 10s 6s 9 13 mph 1019.3mb 75f 73f
6:50 3.5ft 11s 5s 11 13 mph 1018.9mb 75f 72f
5:50 3.5ft 10s 5s 11 16 mph 1018.5mb 75f 72f
4:50 3.5ft 10s 6s 13 16 mph 1018.3mb 75f 71f
3:50 3.5ft 9s 6s 13 16 mph 1018.8mb 75f 71f
2:50 4ft 11s 6s 13 16 mph 1019mb 74f 70f
1:50 4ft 10s 6s 16 18 mph 1019.5mb 75f 70f
12:50 3.5ft 11s 6s 11 13 mph 1020.4mb 75f 70f
jeu. 04/20 11:50 4ft 9s 7s 11 13 mph 1020.8mb 75f 70f
10:50 4ft 10s 7s 9 11 mph 1020.7mb 75f 70f
9:50 4ft 9s 7s 9 11 mph 1020.7mb 75f 69f
8:50 4ft 9s 6s 2 4 mph 1020.6mb 75f 69f
7:50 3.5ft 9s 6s 7 9 mph 1020mb 75f 69f
6:50 4ft 8s 6s 13 16 mph 1019.6mb 75f 71f
5:50 4ft 8s 7s 11 13 mph 1020.1mb 75f 72f
4:50 4ft 7s 6s 9 11 mph 1020.3mb 75f 72f
3:50 3.5ft 10s 6s 9 11 mph 1020.9mb 75f 71f
2:50 4ft 8s 6s 9 11 mph 1021.7mb 75f 71f
1:50 3.5ft 8s 6s 9 11 mph 1022.1mb 75f 71f
12:50 3.5ft 8s 6s 7 9 mph 1022.6mb 75f 71f
11:50 4ft 8s 6s 7 9 mph 1023.2mb 75f 71f
10:50 3.5ft 9s 6s 7 9 mph 1023.4mb 75f 71f
9:50 4ft 8s 6s 9 11 mph 1023.3mb 75f 70f
8:50 4ft 8s 6s 9 13 mph 1023.3mb 75f 70f
7:50 4ft 7s 6s 9 11 mph 1023.3mb 76f 71f
6:50 4ft 7s 6s 7 9 mph 1023.2mb 76f 70f
5:50 4.5ft 7s 6s 9 11 mph 1022.9mb 76f 70f
4:50 4ft 7s 6s 9 11 mph 1022.7mb 76f 70f
3:50 4ft 7s 6s 11 13 mph 1022.6mb 76f 70f
2:50 4ft 7s 6s 11 16 mph 1022.9mb 76f 70f
1:50 4.5ft 8s 6s 13 16 mph 1023.7mb 77f 69f
12:50 4ft 7s 6s 13 16 mph 1024.5mb 77f 69f
mer. 04/19 11:50 4.5ft 8s 6s 11 13 mph 1024.8mb 76f 70f
10:50 5ft 7s 7s 11 13 mph 1025mb 76f 68f
9:50 4.5ft 7s 6s 11 13 mph 1024.9mb 76f 69f
8:50 4ft 8s 6s 4
mph
1024.4mb 74f 70f
7:50 4.5ft 7s 6s 7
mph
1023.9mb 75f 70f